Time;durP1;ratioP1;P1;durP2;ratioP2;P2;SDS_P1;SDS_P2;PMS_P1;PMS_P2;Temp;Humidity;BMP_temperature;BMP_pressure;BME280_temperature;BME280_humidity;BME280_pressure;Samples;Min_cycle;Max_cycle;Signal;HPM_P1;HPM_P2
2021/12/27 00:00:23;;;;;;;51.25;28.55;;;;;;;4.23;71.13;94388.31;5120656;27;20035;-71
2021/12/27 00:02:53;;;;;;;45.38;25.58;;;;;;;4.24;71.10;94386.56;5099372;28;20035;-71
2021/12/27 00:05:19;;;;;;;41.03;23.35;;;;;;;4.25;71.02;94396.72;5122530;27;20033;-71
2021/12/27 00:07:49;;;;;;;35.55;20.80;;;;;;;4.24;70.63;94401.97;5131300;27;20106;-71
2021/12/27 00:10:15;;;;;;;29.70;17.80;;;;;;;4.29;70.30;94388.81;5129802;27;20106;-71
2021/12/27 00:12:41;;;;;;;32.83;20.48;;;;;;;4.27;70.56;94375.25;5129269;27;20054;-71
2021/12/27 00:15:06;;;;;;;29.98;18.55;;;;;;;4.30;70.20;94396.44;5104205;27;20024;-71
2021/12/27 00:17:32;;;;;;;25.15;15.45;;;;;;;4.29;70.70;94391.38;5115784;27;20429;-71
2021/12/27 00:19:57;;;;;;;24.90;16.08;;;;;;;4.35;70.81;94388.44;5131947;27;20035;-71
2021/12/27 00:22:23;;;;;;;25.10;16.23;;;;;;;4.25;70.87;94365.88;5132178;27;20553;-71
2021/12/27 00:24:49;;;;;;;22.85;14.68;;;;;;;4.26;71.07;94379.53;5081190;28;20036;-71
2021/12/27 00:27:15;;;;;;;21.10;13.77;;;;;;;4.22;71.02;94378.94;5112220;27;20038;-71
2021/12/27 00:29:40;;;;;;;23.67;14.48;;;;;;;4.19;71.17;94378.31;5112863;27;20043;-71
2021/12/27 00:32:06;;;;;;;23.48;13.75;;;;;;;4.18;71.31;94382.63;5113290;28;20028;-71
2021/12/27 00:34:31;;;;;;;21.52;14.70;;;;;;;4.12;70.34;94367.56;5113132;27;20030;-71
2021/12/27 00:36:57;;;;;;;27.33;16.35;;;;;;;3.72;72.00;94370.13;5095262;28;20497;-71
2021/12/27 00:39:22;;;;;;;32.83;17.83;;;;;;;3.61;73.00;94372.53;5114822;27;20066;-71
2021/12/27 00:41:48;;;;;;;29.33;17.80;;;;;;;3.67;72.34;94371.34;5116340;27;20493;-71
2021/12/27 00:44:13;;;;;;;28.25;17.00;;;;;;;3.70;72.66;94374.53;5111169;27;20040;-71
2021/12/27 00:46:39;;;;;;;29.30;16.55;;;;;;;3.73;72.22;94386.38;5128284;27;20035;-70
2021/12/27 00:49:04;;;;;;;25.27;13.55;;;;;;;3.65;72.98;94376.59;5125487;27;20446;-71
2021/12/27 00:51:30;;;;;;;19.90;11.73;;;;;;;3.63;73.62;94373.28;5116098;27;20035;-71
2021/12/27 00:53:55;;;;;;;21.63;13.52;;;;;;;3.34;74.40;94369.94;5128167;27;20151;-71
2021/12/27 00:56:20;;;;;;;19.60;12.50;;;;;;;3.44;74.46;94378.75;5118103;27;20031;-71
2021/12/27 00:58:46;;;;;;;18.95;12.07;;;;;;;3.29;74.34;94354.84;5129141;27;20023;-71
2021/12/27 01:01:11;;;;;;;17.80;12.10;;;;;;;3.48;74.09;94372.50;5126047;27;20035;-70
2021/12/27 01:03:37;;;;;;;17.17;12.00;;;;;;;3.56;74.63;94395.94;5112843;28;20020;-71
2021/12/27 01:06:02;;;;;;;22.17;13.27;;;;;;;3.57;74.83;94387.34;5094936;28;20060;-70
2021/12/27 01:08:27;;;;;;;21.45;13.43;;;;;;;3.66;74.04;94385.13;5133195;27;20104;-70
2021/12/27 01:11:13;;;;;;;19.65;12.15;;;;;;;3.63;74.13;94365.59;5130141;27;20027;-71
2021/12/27 01:13:42;;;;;;;21.10;12.57;;;;;;;3.74;73.96;94378.56;5131192;27;20036;-70
2021/12/27 01:16:11;;;;;;;24.00;15.07;;;;;;;3.76;74.27;94376.75;5112355;27;20040;-71
2021/12/27 01:18:45;;;;;;;19.98;13.20;;;;;;;3.60;74.51;94370.09;5111532;27;20023;-70
2021/12/27 01:21:11;;;;;;;18.65;12.57;;;;;;;3.72;74.10;94366.75;5114238;27;20079;-71
2021/12/27 01:23:37;;;;;;;21.00;14.77;;;;;;;3.82;74.05;94370.38;5113789;27;20023;-70
2021/12/27 01:26:02;;;;;;;23.25;14.20;;;;;;;3.84;73.58;94376.22;5094260;28;20087;-71
2021/12/27 01:28:28;;;;;;;22.90;14.82;;;;;;;3.84;73.77;94377.97;5093836;28;20077;-71
2021/12/27 01:30:53;;;;;;;35.80;20.52;;;;;;;3.46;74.93;94376.91;5129535;27;20529;-70
2021/12/27 01:33:20;;;;;;;36.10;21.17;;;;;;;3.22;75.76;94363.00;5115347;27;20249;-70
2021/12/27 01:35:45;;;;;;;33.80;22.60;;;;;;;3.46;74.61;94356.34;5110123;28;20035;-71
2021/12/27 01:38:12;;;;;;;31.08;21.05;;;;;;;3.32;75.47;94351.25;5093823;28;20035;-70
2021/12/27 01:40:38;;;;;;;29.92;18.55;;;;;;;3.40;75.35;94366.16;5127297;27;20031;-71
2021/12/27 01:43:15;;;;;;;23.90;15.40;;;;;;;3.46;75.35;94353.78;5129171;27;20023;-71
2021/12/27 01:45:52;;;;;;;19.80;14.02;;;;;;;3.26;75.48;94351.59;5111227;27;20063;-71
2021/12/27 01:48:21;;;;;;;21.08;13.57;;;;;;;3.32;75.61;94341.81;5111719;27;20036;-70
2021/12/27 01:50:47;;;;;;;20.20;12.18;;;;;;;3.60;75.09;94355.50;5093998;28;20047;-70
2021/12/27 01:53:13;;;;;;;21.02;12.18;;;;;;;3.76;74.43;94361.31;5121339;27;20019;-70
2021/12/27 01:55:39;;;;;;;19.98;12.82;;;;;;;3.91;74.09;94354.38;5129209;27;20562;-71
2021/12/27 01:58:04;;;;;;;25.75;13.80;;;;;;;3.88;74.22;94359.72;5083556;28;20035;-70
2021/12/27 02:00:30;;;;;;;18.95;12.55;;;;;;;3.94;73.89;94356.75;5123920;27;20028;-71
2021/12/27 02:02:56;;;;;;;17.80;12.52;;;;;;;4.10;73.13;94348.88;5120171;27;20034;-71
2021/12/27 02:05:21;;;;;;;17.88;11.25;;;;;;;4.20;73.21;94354.22;5093384;28;20420;-71
2021/12/27 02:07:47;;;;;;;18.52;11.90;;;;;;;4.33;72.17;94342.22;5109178;28;20034;-70
2021/12/27 02:10:13;;;;;;;15.68;10.38;;;;;;;4.35;72.36;94337.00;5113198;27;20504;-71
2021/12/27 02:12:39;;;;;;;19.15;11.48;;;;;;;4.35;72.48;94332.66;5128805;27;20038;-71
2021/12/27 02:15:09;;;;;;;16.65;10.25;;;;;;;4.37;72.71;94341.09;5111521;27;20041;-71
2021/12/27 02:17:35;;;;;;;16.23;10.70;;;;;;;4.13;73.46;94329.88;5129164;27;20407;-71
2021/12/27 02:20:01;;;;;;;21.17;14.00;;;;;;;4.25;73.69;94342.72;5120615;27;20042;-71
2021/12/27 02:22:28;;;;;;;16.23;11.75;;;;;;;4.35;73.24;94342.97;5127926;27;20031;-72
2021/12/27 02:24:54;;;;;;;19.42;11.05;;;;;;;4.37;72.83;94345.41;5110088;28;20059;-70
2021/12/27 02:27:19;;;;;;;15.80;10.38;;;;;;;4.38;73.14;94332.47;5110803;28;20096;-71
2021/12/27 02:29:44;;;;;;;16.15;10.60;;;;;;;4.48;72.60;94338.66;5100015;28;20410;-71
2021/12/27 02:32:10;;;;;;;15.57;10.00;;;;;;;4.52;72.65;94325.59;5109948;28;20482;-71
2021/12/27 02:34:35;;;;;;;16.30;9.32;;;;;;;4.54;72.91;94318.56;5114903;28;20035;-71
2021/12/27 02:37:01;;;;;;;15.98;9.18;;;;;;;4.41;73.43;94314.25;5127759;28;20035;-71
2021/12/27 02:39:29;;;;;;;15.00;8.95;;;;;;;4.46;73.04;94314.78;5123775;27;20023;-71
2021/12/27 02:41:54;;;;;;;12.43;8.82;;;;;;;4.56;73.13;94314.16;5110907;28;20031;-71
2021/12/27 02:44:20;;;;;;;11.32;7.85;;;;;;;4.58;72.65;94314.88;5116360;28;20080;-71
2021/12/27 02:46:45;;;;;;;13.68;7.82;;;;;;;4.55;72.75;94307.38;5126848;28;20042;-71
2021/12/27 02:49:10;;;;;;;11.50;7.80;;;;;;;4.57;73.01;94310.66;5098975;28;20039;-71
2021/12/27 02:51:36;;;;;;;12.30;7.57;;;;;;;4.60;72.75;94305.31;5127070;27;20050;-71
2021/12/27 02:54:01;;;;;;;11.85;7.72;;;;;;;4.60;72.51;94311.28;5112251;28;20038;-71
2021/12/27 02:56:29;;;;;;;11.00;7.60;;;;;;;4.56;72.86;94314.16;5118503;28;20031;-71
2021/12/27 02:58:55;;;;;;;12.50;8.30;;;;;;;4.58;72.70;94313.13;5111883;28;20524;-71
2021/12/27 03:01:21;;;;;;;11.50;7.63;;;;;;;4.57;72.47;94321.78;5097776;28;20075;-72
2021/12/27 03:03:47;;;;;;;11.77;7.78;;;;;;;4.53;72.31;94310.03;5108935;28;20043;-71
2021/12/27 03:06:12;;;;;;;8.98;6.88;;;;;;;4.60;72.52;94310.47;5092673;28;20436;-71
2021/12/27 03:08:39;;;;;;;12.45;7.32;;;;;;;4.60;72.71;94306.13;5122735;27;20020;-71
2021/12/27 03:11:05;;;;;;;9.70;6.60;;;;;;;4.60;72.96;94302.75;5116974;27;20038;-71
2021/12/27 03:13:35;;;;;;;11.43;6.75;;;;;;;4.57;72.83;94301.19;5125732;27;20023;-71
2021/12/27 03:16:05;;;;;;;10.13;6.60;;;;;;;4.62;72.88;94293.16;5119270;27;20031;-71
2021/12/27 03:18:32;;;;;;;12.98;7.82;;;;;;;4.57;72.74;94274.63;5097465;28;20034;-71
2021/12/27 03:20:57;;;;;;;11.60;7.75;;;;;;;4.58;73.00;94281.44;5106209;27;20078;-71
2021/12/27 03:23:23;;;;;;;11.15;6.85;;;;;;;4.66;72.85;94280.00;5133511;27;20469;-71
2021/12/27 03:25:48;;;;;;;9.02;6.70;;;;;;;4.84;72.20;94285.63;5123415;27;20428;-71
2021/12/27 03:28:14;;;;;;;12.40;6.45;;;;;;;4.96;71.65;94294.25;5094987;27;20042;-71
2021/12/27 03:30:39;;;;;;;12.43;6.85;;;;;;;5.04;71.24;94284.25;5119393;27;20421;-71
2021/12/27 03:33:05;;;;;;;28.95;18.58;;;;;;;4.72;71.19;94293.38;5109330;27;20401;-71
2021/12/27 03:35:36;;;;;;;27.25;16.33;;;;;;;4.55;71.75;94299.66;5131976;27;20046;-70
2021/12/27 03:38:03;;;;;;;21.07;14.27;;;;;;;4.69;71.25;94299.53;5131895;27;20046;-70
2021/12/27 03:40:28;;;;;;;23.65;13.60;;;;;;;4.50;71.85;94301.72;5116681;27;20032;-71
2021/12/27 03:42:54;;;;;;;21.60;13.57;;;;;;;4.41;71.85;94270.53;5117101;27;20034;-71
2021/12/27 03:45:25;;;;;;;20.38;12.55;;;;;;;4.66;71.69;94292.84;5131617;27;20127;-71
2021/12/27 03:47:51;;;;;;;14.35;10.30;;;;;;;4.77;71.12;94291.31;5131777;27;20034;-71
2021/12/27 03:50:17;;;;;;;18.42;10.55;;;;;;;4.77;71.02;94274.13;5115841;27;20032;-71
2021/12/27 03:52:42;;;;;;;15.63;10.15;;;;;;;4.88;71.03;94281.91;5095070;27;20131;-71
2021/12/27 03:55:08;;;;;;;17.08;11.50;;;;;;;4.85;70.96;94276.16;5129510;27;20027;-71
2021/12/27 03:57:36;;;;;;;15.00;9.30;;;;;;;4.87;70.88;94269.13;5129576;27;20027;-71
2021/12/27 04:02:51;;;;;;;12.20;8.45;;;;;;;4.61;71.56;94270.94;5071470;28;20051;-71
2021/12/27 04:05:17;;;;;;;23.33;12.93;;;;;;;4.23;73.18;94279.47;5112701;27;20088;-71
2021/12/27 04:07:47;;;;;;;20.45;11.52;;;;;;;4.39;72.59;94274.13;5094254;28;20595;-71
2021/12/27 04:10:12;;;;;;;20.35;12.32;;;;;;;4.51;72.08;94277.63;5116253;27;20493;-71
2021/12/27 04:12:38;;;;;;;17.92;11.13;;;;;;;4.58;71.98;94277.13;5118193;27;20088;-71
2021/12/27 04:15:05;;;;;;;15.10;8.88;;;;;;;4.60;72.03;94274.44;5108178;27;20031;-71
2021/12/27 04:17:30;;;;;;;12.57;7.65;;;;;;;4.64;71.84;94275.88;5110004;28;20440;-71
2021/12/27 04:19:56;;;;;;;9.82;6.38;;;;;;;4.73;72.09;94277.81;5112789;27;20070;-71
2021/12/27 04:22:21;;;;;;;10.85;6.32;;;;;;;4.72;71.97;94257.34;5113176;27;20027;-71
2021/12/27 04:24:46;;;;;;;8.35;6.05;;;;;;;4.91;71.72;94273.97;5112230;27;20050;-71
2021/12/27 04:27:12;;;;;;;9.75;6.00;;;;;;;5.00;71.25;94274.28;5122254;27;20031;-70
2021/12/27 04:29:37;;;;;;;8.57;6.07;;;;;;;5.09;70.82;94271.06;5132583;27;20043;-71
2021/12/27 04:32:03;;;;;;;9.15;5.93;;;;;;;5.25;70.27;94271.63;5119548;27;20106;-71
2021/12/27 04:34:29;;;;;;;9.93;6.35;;;;;;;5.25;70.23;94279.34;5129913;27;20390;-71
2021/12/27 04:36:54;;;;;;;9.57;6.32;;;;;;;5.26;69.97;94287.91;5113279;27;20031;-71
2021/12/27 04:39:19;;;;;;;29.00;18.50;;;;;;;4.92;70.63;94298.78;5102836;27;20023;-70
2021/12/27 04:41:45;;;;;;;30.15;19.50;;;;;;;4.50;71.79;94291.41;5120105;27;20288;-71
2021/12/27 04:44:10;;;;;;;27.35;18.98;;;;;;;4.59;71.85;94299.31;5109548;27;20027;-71
2021/12/27 04:46:36;;;;;;;24.48;15.88;;;;;;;4.51;71.65;94273.28;5101537;28;20042;-71
2021/12/27 04:49:01;;;;;;;23.80;13.55;;;;;;;4.73;71.39;94293.25;5112363;27;20039;-71
2021/12/27 04:51:27;;;;;;;24.50;15.13;;;;;;;4.72;71.19;94283.91;5130466;27;20031;-71
2021/12/27 04:53:52;;;;;;;22.80;14.98;;;;;;;4.68;71.27;94293.59;5124811;27;20027;-71
2021/12/27 04:56:18;;;;;;;22.13;16.55;;;;;;;4.48;71.87;94297.50;5121979;27;20401;-71
2021/12/27 04:58:46;;;;;;;21.17;12.65;;;;;;;4.34;72.74;94297.56;5113243;27;20038;-71
2021/12/27 05:01:13;;;;;;;18.85;12.90;;;;;;;4.25;72.50;94308.47;5128107;27;20458;-71
2021/12/27 05:03:38;;;;;;;20.83;11.77;;;;;;;4.25;73.42;94304.16;5112981;27;20504;-70
2021/12/27 05:06:04;;;;;;;18.33;11.63;;;;;;;4.35;72.86;94306.97;5113108;27;20031;-71
2021/12/27 05:08:29;;;;;;;17.30;10.02;;;;;;;4.42;72.74;94317.66;5121641;27;20472;-71
2021/12/27 05:10:55;;;;;;;16.80;10.07;;;;;;;4.52;72.15;94313.53;5110787;27;20105;-70
2021/12/27 05:13:20;;;;;;;15.20;9.48;;;;;;;4.52;72.61;94312.72;5095378;28;20194;-72
2021/12/27 05:15:47;;;;;;;14.02;8.90;;;;;;;4.64;71.87;94311.88;5116591;27;20054;-71
2021/12/27 05:18:12;;;;;;;13.63;8.60;;;;;;;4.64;71.69;94299.03;5121224;27;20034;-71
2021/12/27 05:20:38;;;;;;;14.82;8.90;;;;;;;4.23;73.19;94292.31;5107544;27;20121;-71
2021/12/27 05:23:04;;;;;;;14.25;8.82;;;;;;;4.31;72.90;94292.63;5111959;27;20037;-71
2021/12/27 05:25:29;;;;;;;12.68;8.70;;;;;;;4.43;72.65;94291.84;5129921;27;20587;-71
2021/12/27 05:27:55;;;;;;;13.10;8.77;;;;;;;4.45;72.60;94300.25;5129569;27;20031;-70
2021/12/27 05:30:20;;;;;;;12.70;9.48;;;;;;;4.04;72.54;94279.88;5106332;28;20043;-71
2021/12/27 05:32:45;;;;;;;17.05;11.07;;;;;;;4.15;73.26;94294.56;5120538;27;20028;-71
2021/12/27 05:35:11;;;;;;;14.13;10.40;;;;;;;4.32;72.90;94296.03;5094289;28;20042;-71
2021/12/27 05:37:38;;;;;;;19.13;10.57;;;;;;;4.42;72.66;94304.78;5110996;28;20059;-71
2021/12/27 05:40:06;;;;;;;16.00;9.02;;;;;;;4.50;72.03;94310.25;5113998;27;20467;-71
2021/12/27 05:42:32;;;;;;;15.82;8.63;;;;;;;4.42;72.21;94320.22;5130248;27;20118;-71
2021/12/27 05:44:58;;;;;;;14.30;8.73;;;;;;;4.43;72.05;94303.84;5125117;27;20038;-71
2021/12/27 05:47:23;;;;;;;11.20;7.25;;;;;;;4.45;72.36;94307.97;5108283;27;20039;-71
2021/12/27 05:49:49;;;;;;;10.95;6.68;;;;;;;4.46;71.82;94299.34;5129978;27;20019;-71
2021/12/27 05:52:14;;;;;;;11.63;6.30;;;;;;;4.51;71.82;94301.59;5112187;27;20516;-71
2021/12/27 05:54:40;;;;;;;7.47;5.45;;;;;;;4.54;71.94;94303.13;5087011;28;20020;-71
2021/12/27 05:57:05;;;;;;;7.80;5.93;;;;;;;4.51;72.52;94316.22;5110803;27;20436;-70
2021/12/27 05:59:30;;;;;;;7.78;5.90;;;;;;;4.48;72.88;94307.78;5128567;27;20031;-71
2021/12/27 06:01:56;;;;;;;8.95;5.50;;;;;;;4.46;72.86;94303.66;5093921;28;20149;-71
2021/12/27 06:04:22;;;;;;;10.77;5.25;;;;;;;4.52;72.68;94310.16;5114449;27;20023;-71
2021/12/27 06:06:47;;;;;;;9.77;5.22;;;;;;;4.50;72.86;94302.53;5124942;27;20106;-70
2021/12/27 06:09:18;;;;;;;9.00;5.40;;;;;;;4.57;72.66;94305.50;5117114;27;20077;-71
2021/12/27 06:11:44;;;;;;;7.43;5.25;;;;;;;4.61;72.63;94289.75;5082567;28;20035;-70
2021/12/27 06:14:10;;;;;;;7.82;5.45;;;;;;;4.60;72.68;94292.47;5108082;27;20030;-71
2021/12/27 06:16:35;;;;;;;8.75;5.75;;;;;;;4.65;72.65;94272.34;5128782;27;20046;-71
2021/12/27 06:19:01;;;;;;;7.88;5.32;;;;;;;4.72;72.82;94278.75;5128750;27;20094;-71
2021/12/27 06:21:26;;;;;;;36.33;22.25;;;;;;;4.25;73.34;94275.06;5130198;27;20455;-70
2021/12/27 06:23:52;;;;;;;27.30;17.33;;;;;;;4.05;74.14;94273.81;5110691;28;20027;-71
2021/12/27 06:26:17;;;;;;;31.70;19.73;;;;;;;4.27;73.53;94277.53;5117795;27;20027;-71
2021/12/27 06:28:42;;;;;;;83.20;45.13;;;;;;;4.32;73.43;94280.59;5120546;27;20433;-71
2021/12/27 06:31:08;;;;;;;56.05;33.75;;;;;;;4.23;73.93;94282.88;5124575;28;20036;-71
2021/12/27 06:33:33;;;;;;;54.05;31.35;;;;;;;4.38;73.69;94296.47;5112959;28;20039;-71
2021/12/27 06:35:59;;;;;;;39.30;23.38;;;;;;;4.50;73.21;94299.97;5128946;28;20042;-71
2021/12/27 06:38:25;;;;;;;33.50;21.00;;;;;;;4.58;72.76;94296.88;5093767;28;20505;-71
2021/12/27 06:40:50;;;;;;;26.73;17.05;;;;;;;4.58;72.76;94294.31;5115726;28;20042;-71
2021/12/27 06:43:16;;;;;;;22.23;14.70;;;;;;;4.68;73.32;94291.00;5127099;27;20493;-71
2021/12/27 06:45:42;;;;;;;20.90;13.20;;;;;;;4.82;73.00;94276.34;5108898;28;20031;-71
2021/12/27 06:48:07;;;;;;;19.73;12.80;;;;;;;4.91;72.26;94273.97;5103127;28;20058;-71
2021/12/27 06:50:33;;;;;;;18.05;11.48;;;;;;;4.98;72.46;94268.41;5111876;27;20176;-71
2021/12/27 06:52:58;;;;;;;18.23;11.15;;;;;;;5.08;72.08;94254.78;5134169;27;20027;-71
2021/12/27 06:55:23;;;;;;;17.50;10.38;;;;;;;5.15;71.97;94244.88;5123284;27;20092;-71
2021/12/27 06:57:49;;;;;;;19.35;12.32;;;;;;;5.06;72.68;94253.25;5121276;27;20042;-71
2021/12/27 07:00:15;;;;;;;22.73;12.88;;;;;;;5.22;71.86;94248.66;5123426;27;20031;-71
2021/12/27 07:02:40;;;;;;;18.33;10.45;;;;;;;5.25;72.39;94248.44;5104987;28;20055;-71
2021/12/27 07:05:06;;;;;;;54.45;30.20;;;;;;;5.18;72.23;94246.41;5124057;27;20043;-71
2021/12/27 07:07:32;;;;;;;72.00;40.80;;;;;;;5.20;71.63;94250.53;5131107;27;20030;-71
2021/12/27 07:09:57;;;;;;;56.13;33.13;;;;;;;5.29;71.59;94244.75;5098892;27;20059;-71
2021/12/27 07:12:23;;;;;;;56.25;34.15;;;;;;;5.45;71.43;94246.22;5113713;28;20061;-71
2021/12/27 07:14:48;;;;;;;59.65;35.70;;;;;;;5.29;71.67;94236.16;5096782;28;20042;-70
2021/12/27 07:17:14;;;;;;;52.95;30.65;;;;;;;5.51;71.51;94256.06;5116628;27;20081;-71
2021/12/27 07:19:40;;;;;;;44.47;26.80;;;;;;;5.55;71.91;94262.66;5135622;27;20038;-71
2021/12/27 07:22:06;;;;;;;34.25;21.15;;;;;;;5.60;71.24;94253.66;5108536;28;20039;-71
2021/12/27 07:24:31;;;;;;;30.30;18.52;;;;;;;5.76;71.02;94268.00;5115882;27;20031;-71
2021/12/27 07:26:57;;;;;;;26.13;16.67;;;;;;;5.80;71.48;94272.03;5119058;27;20047;-71
2021/12/27 07:29:22;;;;;;;27.55;15.95;;;;;;;5.73;72.60;94261.31;5131395;27;20126;-71
2021/12/27 07:31:48;;;;;;;21.33;14.10;;;;;;;5.81;72.98;94268.50;5133739;27;20424;-71
2021/12/27 07:34:13;;;;;;;19.10;12.90;;;;;;;5.89;72.34;94262.78;5116274;27;20066;-71
2021/12/27 07:36:39;;;;;;;18.63;12.63;;;;;;;5.98;72.46;94269.88;5109745;27;20405;-70
2021/12/27 07:39:05;;;;;;;21.90;15.88;;;;;;;6.00;72.69;94262.84;5133010;27;20035;-71
2021/12/27 07:41:30;;;;;;;23.70;17.50;;;;;;;5.95;73.09;94246.91;5116023;27;20019;-70
2021/12/27 07:43:56;;;;;;;22.83;15.80;;;;;;;5.86;73.51;94247.53;5130518;27;20041;-71
2021/12/27 07:46:22;;;;;;;19.60;14.45;;;;;;;5.91;73.96;94251.44;5128223;27;20031;-71
2021/12/27 07:48:47;;;;;;;20.98;14.57;;;;;;;5.92;74.46;94260.81;5114614;27;20019;-71
2021/12/27 07:51:13;;;;;;;20.85;14.80;;;;;;;5.98;73.53;94255.22;5124668;27;20055;-71
2021/12/27 07:53:38;;;;;;;15.15;9.68;;;;;;;6.28;72.98;94256.47;5104149;27;20027;-71
2021/12/27 07:56:06;;;;;;;6.00;3.83;;;;;;;6.56;71.37;94265.53;5117692;27;20046;-71
2021/12/27 07:58:31;;;;;;;4.70;3.30;;;;;;;6.74;70.88;94254.75;5115856;27;20096;-71
2021/12/27 08:00:57;;;;;;;3.13;1.60;;;;;;;7.61;66.51;94246.16;5113952;27;20034;-71
2021/12/27 08:03:22;;;;;;;2.88;1.65;;;;;;;8.40;64.28;94240.59;5095556;28;20039;-71
2021/12/27 08:05:48;;;;;;;4.65;1.80;;;;;;;8.34;64.15;94246.28;5115812;27;20493;-71
2021/12/27 08:08:13;;;;;;;2.78;1.55;;;;;;;8.99;61.16;94240.88;5119783;27;20023;-71
2021/12/27 08:10:39;;;;;;;2.33;1.00;;;;;;;9.45;59.01;94240.31;5129489;27;20084;-72
2021/12/27 08:13:04;;;;;;;1.92;0.85;;;;;;;9.96;57.43;94239.25;5120266;27;20019;-70
2021/12/27 08:15:30;;;;;;;3.10;1.10;;;;;;;10.22;56.40;94223.94;5120444;27;20039;-71
2021/12/27 08:17:55;;;;;;;5.43;1.15;;;;;;;10.32;55.96;94236.13;5122488;27;20023;-72
2021/12/27 08:20:20;;;;;;;2.72;1.25;;;;;;;10.64;54.70;94246.13;5104841;28;20035;-70
2021/12/27 08:22:47;;;;;;;1.70;0.80;;;;;;;10.59;55.43;94233.59;5107868;28;20028;-71
2021/12/27 08:25:12;;;;;;;2.25;1.00;;;;;;;10.85;53.94;94227.75;5119092;27;20119;-70
2021/12/27 08:27:39;;;;;;;3.17;1.10;;;;;;;10.81;54.49;94221.19;5116481;27;20039;-72
2021/12/27 08:30:05;;;;;;;3.25;1.05;;;;;;;10.85;54.34;94238.16;5127153;27;20051;-72
2021/12/27 08:32:32;;;;;;;2.97;1.35;;;;;;;10.83;54.55;94220.09;5089657;27;20034;-69
2021/12/27 08:34:57;;;;;;;2.40;1.08;;;;;;;10.97;54.17;94218.81;5103696;27;20046;-71
2021/12/27 08:37:23;;;;;;;2.03;1.08;;;;;;;11.05;53.39;94229.31;5119904;27;20493;-72
2021/12/27 08:39:48;;;;;;;3.30;1.23;;;;;;;11.22;53.82;94224.31;5111540;28;20035;-73
2021/12/27 08:42:14;;;;;;;2.70;1.08;;;;;;;11.20;53.04;94237.47;5107911;27;20089;-73
2021/12/27 08:44:39;;;;;;;3.08;1.40;;;;;;;11.27;53.36;94227.28;5122901;27;20023;-71
2021/12/27 08:47:05;;;;;;;2.70;1.25;;;;;;;11.24;53.21;94240.59;5107170;27;20035;-73
2021/12/27 08:49:30;;;;;;;5.00;2.05;;;;;;;11.15;53.45;94235.28;5132526;27;20528;-72
2021/12/27 08:51:56;;;;;;;3.20;1.50;;;;;;;11.28;54.40;94242.75;5129270;27;20473;-75
2021/12/27 08:54:21;;;;;;;3.85;1.80;;;;;;;11.27;54.98;94227.28;5115004;27;20027;-72
2021/12/27 08:56:47;;;;;;;5.85;1.80;;;;;;;11.20;55.13;94216.66;5121632;27;20027;-73
2021/12/27 08:59:12;;;;;;;4.53;2.10;;;;;;;11.16;53.96;94205.72;5096638;27;20038;-73
2021/12/27 09:01:38;;;;;;;4.57;2.40;;;;;;;11.21;53.66;94202.69;5106181;27;20028;-73
2021/12/27 09:04:04;;;;;;;5.75;1.60;;;;;;;11.33;53.31;94205.91;5102637;27;20081;-73
2021/12/27 09:06:33;;;;;;;5.57;1.50;;;;;;;11.33;52.71;94201.50;5121599;27;20557;-74
2021/12/27 09:08:59;;;;;;;4.93;1.80;;;;;;;11.44;52.83;94210.09;5119085;27;20037;-72
2021/12/27 09:11:24;;;;;;;5.35;2.42;;;;;;;11.43;52.60;94191.06;5102516;27;20036;-73
2021/12/27 09:13:50;;;;;;;5.45;2.70;;;;;;;11.41;52.59;94198.19;5111972;27;20030;-71
2021/12/27 09:16:16;;;;;;;7.90;1.83;;;;;;;11.48;52.89;94196.66;5094612;28;20038;-71
2021/12/27 09:18:42;;;;;;;3.35;1.90;;;;;;;11.40;52.68;94184.38;5094286;28;20107;-70
2021/12/27 09:21:07;;;;;;;3.65;1.60;;;;;;;11.47;52.66;94187.19;5113497;27;20027;-76
2021/12/27 09:23:33;;;;;;;5.57;2.38;;;;;;;11.50;53.03;94186.88;5099267;28;20027;-73
2021/12/27 09:25:58;;;;;;;5.25;2.53;;;;;;;11.61;52.37;94173.66;5125266;27;20027;-76
2021/12/27 09:28:24;;;;;;;5.32;1.90;;;;;;;11.57;52.38;94172.34;5114500;27;20035;-73
2021/12/27 09:30:49;;;;;;;9.82;3.40;;;;;;;11.60;52.39;94166.03;5114491;27;20031;-74
2021/12/27 09:33:15;;;;;;;3.60;1.73;;;;;;;11.69;52.38;94140.91;5112470;27;20038;-74
2021/12/27 09:35:40;;;;;;;6.95;1.83;;;;;;;11.67;51.72;94142.81;5078787;28;20474;-71
2021/12/27 09:38:06;;;;;;;3.90;1.40;;;;;;;11.72;51.15;94128.41;5112049;28;20058;-71
2021/12/27 09:40:31;;;;;;;4.28;1.50;;;;;;;11.83;50.96;94135.97;5110789;28;20069;-74
2021/12/27 09:42:57;;;;;;;4.15;1.42;;;;;;;12.01;50.41;94117.75;5120199;27;20405;-76
2021/12/27 09:45:22;;;;;;;3.95;1.55;;;;;;;11.95;50.46;94131.38;5110685;28;20107;-71
2021/12/27 09:47:50;;;;;;;4.30;2.20;;;;;;;11.79;50.15;94110.41;5129150;27;20420;-76
2021/12/27 09:50:50;;;;;;;5.18;1.98;;;;;;;12.02;50.39;94127.19;5093812;28;20061;-70
2021/12/27 09:53:15;;;;;;;3.60;1.50;;;;;;;11.83;50.39;94114.34;5115467;27;20030;-75
2021/12/27 09:55:41;;;;;;;5.22;2.03;;;;;;;11.95;50.38;94113.16;5131157;27;20031;-74
2021/12/27 09:58:06;;;;;;;5.25;1.63;;;;;;;12.13;51.23;94126.13;5130176;27;20034;-73
2021/12/27 10:00:32;;;;;;;6.50;2.85;;;;;;;12.20;51.10;94128.91;5130241;27;20525;-73
2021/12/27 10:02:58;;;;;;;10.63;4.28;;;;;;;12.24;51.50;94125.88;5111801;27;20024;-73
2021/12/27 10:05:26;;;;;;;6.53;3.25;;;;;;;12.15;51.22;94112.97;5130344;27;20074;-73
2021/12/27 10:07:51;;;;;;;3.97;1.80;;;;;;;12.26;50.76;94120.53;5112199;27;20028;-70
2021/12/27 10:10:17;;;;;;;5.60;2.38;;;;;;;12.39;50.49;94120.91;5110286;28;20042;-70
2021/12/27 10:12:42;;;;;;;6.03;2.80;;;;;;;12.24;50.06;94118.06;5115180;27;20504;-71
2021/12/27 10:15:13;;;;;;;18.83;9.55;;;;;;;12.26;51.05;94133.53;5119071;27;20027;-71
2021/12/27 10:17:38;;;;;;;7.25;4.40;;;;;;;12.23;51.42;94128.63;5098379;28;20024;-71
2021/12/27 10:20:21;;;;;;;6.65;4.88;;;;;;;12.22;51.46;94124.38;5098061;27;20110;-72
2021/12/27 10:22:51;;;;;;;11.60;8.52;;;;;;;12.30;51.39;94129.66;5120364;27;20409;-72
2021/12/27 10:25:18;;;;;;;23.30;11.80;;;;;;;12.07;52.10;94114.53;5116994;28;20031;-75
2021/12/27 10:27:43;;;;;;;3.92;1.58;;;;;;;12.02;50.89;94114.16;5119141;27;20038;-72
2021/12/27 10:30:14;;;;;;;4.82;2.00;;;;;;;12.11;50.87;94114.22;5130322;27;20055;-72
2021/12/27 10:32:39;;;;;;;5.22;3.25;;;;;;;12.16;50.67;94122.41;5094206;28;20561;-71
2021/12/27 10:35:06;;;;;;;18.98;9.43;;;;;;;12.14;51.58;94122.53;5076280;28;20035;-70
2021/12/27 10:37:32;;;;;;;15.60;7.82;;;;;;;12.07;51.13;94114.53;5114869;28;20020;-70
2021/12/27 10:40:11;;;;;;;17.13;8.05;;;;;;;12.06;51.79;94104.25;5114162;28;20463;-70
2021/12/27 10:42:45;;;;;;;8.32;4.57;;;;;;;12.02;53.02;94097.75;5089059;28;20115;-71
2021/12/27 10:45:18;;;;;;;10.05;6.63;;;;;;;11.98;53.16;94092.03;5095565;28;20051;-71
2021/12/27 10:48:02;;;;;;;43.75;19.13;;;;;;;11.97;53.08;94084.38;5101750;28;20055;-70
2021/12/27 10:50:31;;;;;;;24.13;13.30;;;;;;;12.05;53.79;94098.25;5109949;28;20040;-71
2021/12/27 10:53:00;;;;;;;21.40;11.15;;;;;;;12.11;53.38;94091.59;5095736;28;20027;-71
2021/12/27 10:55:38;;;;;;;6.70;3.55;;;;;;;12.12;51.27;94088.06;5109543;28;20116;-71
2021/12/27 10:58:25;;;;;;;6.25;3.30;;;;;;;12.21;51.26;94068.09;5114162;28;20114;-71
2021/12/27 11:01:11;;;;;;;4.45;2.13;;;;;;;12.29;50.78;94068.94;5111321;28;20485;-73
2021/12/27 11:03:42;;;;;;;5.97;2.55;;;;;;;12.38;49.57;94061.97;5111911;28;20173;-71
2021/12/27 11:06:09;;;;;;;4.38;1.48;;;;;;;12.60;49.46;94072.81;5093148;28;20412;-71
2021/12/27 11:08:35;;;;;;;5.93;2.63;;;;;;;12.59;49.58;94061.59;5100872;28;20036;-71
2021/12/27 11:11:02;;;;;;;5.82;2.10;;;;;;;12.75;49.14;94082.47;5100030;28;20111;-71
2021/12/27 11:13:28;;;;;;;5.85;2.42;;;;;;;12.88;49.75;94079.41;5109555;28;20024;-71
2021/12/27 11:15:53;;;;;;;4.78;3.17;;;;;;;12.95;48.30;94074.38;5109262;28;20501;-72
2021/12/27 11:18:19;;;;;;;4.32;2.45;;;;;;;13.14;47.66;94073.28;5100545;28;20051;-72
2021/12/27 11:20:47;;;;;;;4.88;2.10;;;;;;;13.07;47.40;94078.31;5119688;28;20047;-72
2021/12/27 11:23:13;;;;;;;6.20;2.72;;;;;;;13.07;47.65;94064.47;5114998;28;20031;-72
2021/12/27 11:25:40;;;;;;;11.75;5.75;;;;;;;12.86;48.06;94060.50;5110591;28;20031;-72
2021/12/27 11:28:23;;;;;;;9.15;4.50;;;;;;;12.95;48.19;94067.41;5087687;28;20078;-73